Time;durP1;ratioP1;P1;durP2;ratioP2;P2;SDS_P1;SDS_P2;PMS_P1;PMS_P2;Temp;Humidity;BMP_temperature;BMP_pressure;BME280_temperature;BME280_humidity;BME280_pressure;Samples;Min_cycle;Max_cycle;Signal;HPM_P1;HPM_P2
2022/03/08 00:01:15;;;;;;;12.93;7.75;;;1.10;94.10;;;;;;4992488;28;20125;-35
2022/03/08 00:03:41;;;;;;;13.65;8.40;;;1.10;94.20;;;;;;4992979;28;20457;-36
2022/03/08 00:06:10;;;;;;;12.70;7.90;;;1.00;94.30;;;;;;4991455;28;20057;-36
2022/03/08 00:08:37;;;;;;;14.43;8.00;;;1.00;94.40;;;;;;4993632;28;20046;-36
2022/03/08 00:11:04;;;;;;;11.57;7.03;;;0.90;94.60;;;;;;4993309;28;20129;-36
2022/03/08 00:13:30;;;;;;;12.40;7.32;;;0.90;94.60;;;;;;4991845;28;20513;-35
2022/03/08 00:15:57;;;;;;;14.50;7.90;;;0.90;94.70;;;;;;4983030;28;20495;-36
2022/03/08 00:18:25;;;;;;;16.42;8.38;;;0.90;94.90;;;;;;4991819;28;20105;-36
2022/03/08 00:20:52;;;;;;;13.02;7.95;;;0.80;95.00;;;;;;4993237;28;20173;-35
2022/03/08 00:23:19;;;;;;;10.45;7.00;;;0.80;95.00;;;;;;4992086;28;20046;-36
2022/03/08 00:25:45;;;;;;;12.63;7.38;;;0.80;95.10;;;;;;4993353;28;20116;-36
2022/03/08 00:28:12;;;;;;;10.38;6.70;;;0.80;95.20;;;;;;4992522;28;20078;-35
2022/03/08 00:30:39;;;;;;;13.95;7.63;;;0.80;95.30;;;;;;4991968;28;20374;-35
2022/03/08 00:33:06;;;;;;;12.18;7.50;;;0.70;95.30;;;;;;4991547;28;20050;-35
2022/03/08 00:35:34;;;;;;;15.10;8.45;;;0.70;95.30;;;;;;4991240;28;20052;-36
2022/03/08 00:38:00;;;;;;;13.38;7.57;;;0.70;95.40;;;;;;4985509;28;20054;-35
2022/03/08 00:40:27;;;;;;;14.30;8.30;;;0.70;95.60;;;;;;4987508;28;20060;-36
2022/03/08 00:42:54;;;;;;;10.55;6.65;;;0.70;95.60;;;;;;4984816;28;20046;-34
2022/03/08 00:45:21;;;;;;;13.32;7.85;;;0.60;95.60;;;;;;4990190;28;20054;-35
2022/03/08 00:47:48;;;;;;;12.95;7.22;;;0.60;95.70;;;;;;4992408;28;20121;-36
2022/03/08 00:50:16;;;;;;;10.93;6.93;;;0.60;95.80;;;;;;4991342;28;20125;-35
2022/03/08 00:52:44;;;;;;;11.98;6.82;;;0.60;95.80;;;;;;4992687;28;20537;-35
2022/03/08 00:55:13;;;;;;;17.48;8.75;;;0.50;95.80;;;;;;4978781;28;20050;-35
2022/03/08 00:57:40;;;;;;;11.93;7.13;;;0.60;96.00;;;;;;4990417;28;20398;-36
2022/03/08 01:00:08;;;;;;;13.55;7.95;;;0.50;96.20;;;;;;4991146;28;20467;-35
2022/03/08 01:02:35;;;;;;;12.15;6.97;;;0.50;96.30;;;;;;4990531;28;20093;-35
2022/03/08 01:05:01;;;;;;;13.00;7.53;;;0.50;96.30;;;;;;4991219;28;20046;-36
2022/03/08 01:07:28;;;;;;;17.65;8.00;;;0.50;96.40;;;;;;4991655;28;20046;-36
2022/03/08 01:09:56;;;;;;;12.65;7.22;;;0.50;96.50;;;;;;4990827;28;20439;-35
2022/03/08 01:12:23;;;;;;;11.95;8.00;;;0.40;96.70;;;;;;4991942;28;20053;-36
2022/03/08 01:14:50;;;;;;;10.10;6.07;;;0.40;96.80;;;;;;4991470;28;20047;-36
2022/03/08 01:17:16;;;;;;;11.95;7.88;;;0.40;97.00;;;;;;4988619;28;20046;-37
2022/03/08 01:19:43;;;;;;;12.05;6.90;;;0.30;96.70;;;;;;4992736;28;20153;-35
2022/03/08 01:22:11;;;;;;;12.05;7.55;;;0.40;96.80;;;;;;4992482;28;20058;-36
2022/03/08 01:24:38;;;;;;;12.30;6.80;;;0.30;96.90;;;;;;4991801;28;20133;-35
2022/03/08 01:27:06;;;;;;;13.85;7.70;;;0.30;96.90;;;;;;4992670;28;20068;-36
2022/03/08 01:29:33;;;;;;;13.15;7.78;;;0.30;97.00;;;;;;4992361;28;20486;-35
2022/03/08 01:32:00;;;;;;;14.27;7.97;;;0.30;97.10;;;;;;4990603;28;20054;-35
2022/03/08 01:34:26;;;;;;;14.57;7.90;;;0.30;97.20;;;;;;4992171;28;20102;-36
2022/03/08 01:36:54;;;;;;;13.93;7.68;;;0.20;97.30;;;;;;4990570;28;20060;-36
2022/03/08 01:39:21;;;;;;;12.25;7.38;;;0.20;97.40;;;;;;4991007;28;20046;-35
2022/03/08 01:41:48;;;;;;;11.55;6.72;;;0.20;97.70;;;;;;4990941;28;20117;-36
2022/03/08 01:44:17;;;;;;;13.88;7.50;;;0.20;97.40;;;;;;4991028;28;20062;-36
2022/03/08 01:46:44;;;;;;;10.65;6.85;;;0.20;97.50;;;;;;4991055;28;20042;-36
2022/03/08 01:49:11;;;;;;;14.13;8.05;;;0.20;97.50;;;;;;4990615;28;20142;-36
2022/03/08 01:51:39;;;;;;;13.38;7.53;;;0.10;97.60;;;;;;4984402;28;20047;-36
2022/03/08 01:54:06;;;;;;;15.98;8.57;;;0.10;97.70;;;;;;4983404;28;20074;-36
2022/03/08 01:56:33;;;;;;;14.50;8.23;;;0.10;98.30;;;;;;4993443;28;20056;-36
2022/03/08 01:59:00;;;;;;;14.55;8.48;;;0.10;98.30;;;;;;4993632;28;20418;-36
2022/03/08 02:01:28;;;;;;;16.52;8.82;;;0.10;98.60;;;;;;4995102;28;20053;-36
2022/03/08 02:03:55;;;;;;;14.73;8.85;;;0.10;99.40;;;;;;4995120;28;20081;-36
2022/03/08 02:06:21;;;;;;;15.27;9.52;;;0.00;99.80;;;;;;4993730;28;20065;-36
2022/03/08 02:08:48;;;;;;;15.05;8.85;;;0.00;99.90;;;;;;4994746;28;20046;-36
2022/03/08 02:11:15;;;;;;;14.57;8.30;;;0.00;99.90;;;;;;4993584;28;20042;-36
2022/03/08 02:13:43;;;;;;;15.38;9.02;;;0.00;99.70;;;;;;4995145;28;20133;-36
2022/03/08 02:16:10;;;;;;;15.18;8.35;;;0.00;99.40;;;;;;4994031;28;20455;-37
2022/03/08 02:18:38;;;;;;;17.13;9.88;;;0.00;99.40;;;;;;4994071;28;20046;-36
2022/03/08 02:21:06;;;;;;;19.23;9.82;;;0.00;99.70;;;;;;4995637;28;20177;-36
2022/03/08 02:23:33;;;;;;;15.32;9.45;;;0.00;99.80;;;;;;4994180;28;20837;-37
2022/03/08 02:26:00;;;;;;;18.30;10.02;;;0.00;99.70;;;;;;4995722;28;20049;-36
2022/03/08 02:28:27;;;;;;;20.52;9.90;;;0.00;99.90;;;;;;4989740;28;20042;-36
2022/03/08 02:30:54;;;;;;;17.75;10.20;;;0.00;99.90;;;;;;4993484;28;20058;-36
2022/03/08 02:33:20;;;;;;;20.75;10.90;;;-0.10;99.90;;;;;;4993623;28;20061;-36
2022/03/08 02:35:47;;;;;;;19.02;11.65;;;0.00;99.90;;;;;;4993910;28;20064;-36
2022/03/08 02:38:15;;;;;;;18.67;10.80;;;0.00;99.90;;;;;;4993381;28;20042;-36
2022/03/08 02:40:43;;;;;;;18.50;11.23;;;0.00;99.90;;;;;;4993763;28;20066;-37
2022/03/08 02:43:10;;;;;;;18.75;11.73;;;0.00;99.90;;;;;;4993536;28;20505;-36
2022/03/08 02:45:37;;;;;;;22.85;12.23;;;0.00;99.90;;;;;;4993827;28;20070;-36
2022/03/08 02:48:05;;;;;;;20.38;11.43;;;0.00;99.90;;;;;;4994238;28;20065;-36
2022/03/08 02:50:31;;;;;;;21.00;11.55;;;0.00;99.90;;;;;;4993115;28;20046;-36
2022/03/08 02:52:58;;;;;;;21.25;11.95;;;0.00;99.90;;;;;;4995110;28;20050;-36
2022/03/08 02:55:27;;;;;;;21.65;12.57;;;0.00;99.90;;;;;;4995007;28;20054;-36
2022/03/08 02:57:54;;;;;;;21.95;12.27;;;0.00;99.90;;;;;;4993156;28;20038;-36
2022/03/08 03:00:21;;;;;;;26.17;12.68;;;0.00;99.90;;;;;;4994350;28;20613;-36
2022/03/08 03:02:48;;;;;;;21.20;12.38;;;0.00;99.90;;;;;;4994215;28;20046;-36
2022/03/08 03:05:15;;;;;;;27.60;12.85;;;0.00;99.90;;;;;;4994537;28;20447;-36
2022/03/08 03:07:42;;;;;;;20.20;12.02;;;0.00;99.90;;;;;;4992278;28;20097;-36
2022/03/08 03:10:09;;;;;;;21.77;12.65;;;0.00;99.90;;;;;;4993431;28;20054;-36
2022/03/08 03:12:37;;;;;;;20.90;12.65;;;0.00;99.90;;;;;;4993180;28;20121;-35
2022/03/08 03:15:05;;;;;;;23.23;12.98;;;0.00;99.90;;;;;;4984610;28;20429;-36
2022/03/08 03:17:32;;;;;;;21.00;12.35;;;0.00;99.90;;;;;;4993472;28;20129;-36
2022/03/08 03:19:59;;;;;;;20.58;12.50;;;0.00;99.90;;;;;;4992137;28;20047;-36
2022/03/08 03:22:26;;;;;;;25.92;12.43;;;-0.10;99.90;;;;;;4993260;28;20129;-35
2022/03/08 03:24:52;;;;;;;27.23;13.18;;;0.00;99.90;;;;;;4993166;28;20518;-35
2022/03/08 03:27:19;;;;;;;23.13;12.88;;;-0.10;99.90;;;;;;4993189;28;20421;-36
2022/03/08 03:29:47;;;;;;;21.15;12.35;;;-0.10;99.90;;;;;;4992871;28;20117;-35
2022/03/08 03:32:14;;;;;;;24.73;13.80;;;-0.10;99.90;;;;;;4992534;28;20046;-35
2022/03/08 03:34:40;;;;;;;22.55;12.70;;;-0.10;99.90;;;;;;4993073;28;20046;-35
2022/03/08 03:37:07;;;;;;;22.42;13.45;;;-0.10;99.90;;;;;;4992517;28;20046;-35
2022/03/08 03:39:34;;;;;;;22.35;12.60;;;-0.10;99.90;;;;;;4992606;28;20050;-35
2022/03/08 03:42:00;;;;;;;24.45;14.35;;;-0.20;99.90;;;;;;4992023;28;20121;-35
2022/03/08 03:44:27;;;;;;;25.75;14.93;;;-0.20;99.90;;;;;;4993608;28;20415;-34
2022/03/08 03:46:56;;;;;;;26.33;14.68;;;-0.20;99.90;;;;;;4992975;28;20070;-35
2022/03/08 03:49:22;;;;;;;28.17;15.20;;;-0.20;99.90;;;;;;4992765;28;20057;-35
2022/03/08 03:51:51;;;;;;;25.85;14.43;;;-0.20;99.90;;;;;;4993097;28;20046;-35
2022/03/08 03:54:17;;;;;;;26.42;14.77;;;-0.20;99.90;;;;;;4992496;28;20130;-35
2022/03/08 03:56:44;;;;;;;27.65;14.63;;;-0.20;99.90;;;;;;4993290;28;20084;-35
2022/03/08 03:59:11;;;;;;;29.65;15.70;;;-0.20;99.90;;;;;;4992193;28;20042;-35
2022/03/08 04:01:38;;;;;;;27.98;14.93;;;-0.20;99.90;;;;;;4992258;28;20058;-35
2022/03/08 04:04:09;;;;;;;24.55;15.05;;;-0.20;99.90;;;;;;4992766;28;20050;-36
2022/03/08 04:06:36;;;;;;;24.30;15.48;;;-0.20;99.90;;;;;;4983935;28;20126;-36
2022/03/08 04:09:03;;;;;;;29.30;15.90;;;-0.20;99.90;;;;;;4974666;28;20430;-35
2022/03/08 04:11:29;;;;;;;27.63;15.70;;;-0.20;99.90;;;;;;4980605;28;20407;-35
2022/03/08 04:13:56;;;;;;;25.83;15.57;;;-0.20;99.90;;;;;;4991932;28;20038;-35
2022/03/08 04:16:23;;;;;;;27.45;15.35;;;-0.20;99.90;;;;;;4991612;28;20424;-35
2022/03/08 04:18:49;;;;;;;25.25;14.68;;;-0.20;99.90;;;;;;4991904;28;20054;-34
2022/03/08 04:21:17;;;;;;;27.95;15.75;;;-0.20;99.90;;;;;;4986192;28;20442;-35
2022/03/08 04:23:44;;;;;;;27.10;14.45;;;-0.20;99.90;;;;;;4992328;28;20046;-35
2022/03/08 04:26:11;;;;;;;29.42;16.73;;;-0.20;99.90;;;;;;4991707;28;20489;-35
2022/03/08 04:28:37;;;;;;;26.70;14.52;;;-0.20;99.90;;;;;;4991619;28;20046;-36
2022/03/08 04:31:04;;;;;;;26.23;15.48;;;-0.20;99.90;;;;;;4992716;28;20038;-35
2022/03/08 04:33:31;;;;;;;28.33;16.38;;;-0.20;99.90;;;;;;4992229;28;20390;-35
2022/03/08 04:35:57;;;;;;;26.05;15.80;;;-0.20;99.90;;;;;;4991564;28;20054;-35
2022/03/08 04:38:26;;;;;;;28.73;15.88;;;-0.20;99.90;;;;;;4992605;28;20371;-35
2022/03/08 04:40:52;;;;;;;27.15;14.80;;;-0.30;99.90;;;;;;4991656;28;20164;-35
2022/03/08 04:43:19;;;;;;;27.75;15.30;;;-0.30;99.90;;;;;;4991594;28;20061;-35
2022/03/08 04:45:46;;;;;;;25.00;15.75;;;-0.30;99.90;;;;;;4982885;28;20134;-34
2022/03/08 04:48:12;;;;;;;31.08;16.33;;;-0.30;99.90;;;;;;4987401;28;20125;-34
2022/03/08 04:50:40;;;;;;;31.63;16.15;;;-0.30;99.90;;;;;;4991439;28;20117;-35
2022/03/08 04:53:07;;;;;;;28.52;15.48;;;-0.30;99.90;;;;;;4992572;28;20540;-35
2022/03/08 04:55:35;;;;;;;26.88;15.95;;;-0.30;99.90;;;;;;4991758;28;20470;-35
2022/03/08 04:58:02;;;;;;;31.70;17.17;;;-0.30;99.90;;;;;;4991786;28;20123;-36
2022/03/08 05:00:28;;;;;;;27.13;16.08;;;-0.30;99.90;;;;;;4991078;28;20134;-35
2022/03/08 05:02:55;;;;;;;31.05;17.23;;;-0.30;99.90;;;;;;4993030;28;20051;-35
2022/03/08 05:05:22;;;;;;;28.83;16.73;;;-0.40;99.90;;;;;;4990821;28;20051;-35
2022/03/08 05:07:49;;;;;;;25.92;15.75;;;-0.40;99.90;;;;;;4991009;28;20046;-35
2022/03/08 05:10:15;;;;;;;29.25;16.58;;;-0.40;99.90;;;;;;4991345;28;20423;-35
2022/03/08 05:12:43;;;;;;;26.77;16.75;;;-0.40;99.90;;;;;;4991813;28;20069;-35
2022/03/08 05:15:10;;;;;;;27.88;16.63;;;-0.40;99.90;;;;;;4991668;28;20090;-35
2022/03/08 05:17:37;;;;;;;30.90;17.80;;;-0.40;99.90;;;;;;4992138;28;20046;-35
2022/03/08 05:20:05;;;;;;;27.90;16.08;;;-0.40;99.90;;;;;;4992730;28;20077;-36
2022/03/08 05:22:32;;;;;;;27.58;15.80;;;-0.40;99.90;;;;;;4992163;28;20042;-35
2022/03/08 05:24:59;;;;;;;26.65;15.20;;;-0.40;99.90;;;;;;4991665;28;20121;-36
2022/03/08 05:27:25;;;;;;;27.67;16.45;;;-0.50;99.90;;;;;;4990139;28;20113;-36
2022/03/08 05:29:53;;;;;;;27.52;16.42;;;-0.50;99.90;;;;;;4982166;28;20046;-36
2022/03/08 05:32:20;;;;;;;28.17;17.05;;;-0.50;99.90;;;;;;4986006;28;20540;-35
2022/03/08 05:34:47;;;;;;;29.30;17.05;;;-0.50;99.90;;;;;;4985053;28;20054;-36
2022/03/08 05:37:13;;;;;;;27.83;16.63;;;-0.50;99.90;;;;;;4997396;28;20073;-36
2022/03/08 05:39:40;;;;;;;25.17;15.27;;;-0.50;99.90;;;;;;4990994;28;20096;-35
2022/03/08 05:42:07;;;;;;;25.90;15.85;;;-0.50;99.90;;;;;;4991187;28;20125;-36
2022/03/08 05:44:34;;;;;;;27.73;16.33;;;-0.60;99.90;;;;;;4991911;28;20065;-37
2022/03/08 05:47:02;;;;;;;29.00;15.43;;;-0.60;99.90;;;;;;4993808;28;20478;-36
2022/03/08 05:49:29;;;;;;;27.23;16.13;;;-0.60;99.90;;;;;;4988830;28;20438;-36
2022/03/08 05:51:55;;;;;;;27.42;16.45;;;-0.60;99.90;;;;;;4985368;28;20047;-35
2022/03/08 05:54:22;;;;;;;28.58;16.08;;;-0.60;99.90;;;;;;4995079;28;20089;-35
2022/03/08 05:56:50;;;;;;;27.02;15.98;;;-0.60;99.90;;;;;;4992529;28;20038;-36
2022/03/08 05:59:17;;;;;;;28.17;16.40;;;-0.70;99.90;;;;;;4994189;28;20130;-36
2022/03/08 06:01:43;;;;;;;26.88;16.90;;;-0.70;99.90;;;;;;4993523;28;20140;-36
2022/03/08 06:04:11;;;;;;;28.67;16.08;;;-0.70;99.90;;;;;;4993567;28;20121;-35
2022/03/08 06:06:38;;;;;;;27.45;16.48;;;-0.70;99.90;;;;;;4993399;28;20038;-35
2022/03/08 06:09:05;;;;;;;31.13;17.27;;;-0.70;99.90;;;;;;4991374;28;20363;-36
2022/03/08 06:11:31;;;;;;;29.13;16.52;;;-0.70;99.90;;;;;;4993365;28;20046;-36
2022/03/08 06:13:59;;;;;;;28.95;16.98;;;-0.80;99.90;;;;;;4950110;23;20058;-35
2022/03/08 06:16:26;;;;;;;31.67;16.75;;;-0.80;99.90;;;;;;5006116;28;20125;-35
2022/03/08 06:18:55;;;;;;;25.85;15.45;;;-0.80;99.90;;;;;;5000848;28;20129;-36
2022/03/08 06:21:23;;;;;;;26.35;16.10;;;-0.80;99.90;;;;;;5008770;28;20057;-35
2022/03/08 06:23:49;;;;;;;28.23;17.05;;;-0.80;99.90;;;;;;5009107;28;20048;-35
2022/03/08 06:26:16;;;;;;;31.35;16.05;;;-0.80;99.90;;;;;;5007223;28;20053;-35
2022/03/08 06:28:43;;;;;;;28.73;16.17;;;-0.80;99.90;;;;;;5011881;28;20046;-35
2022/03/08 06:31:10;;;;;;;27.05;15.60;;;-0.70;99.90;;;;;;5008309;28;20824;-33
2022/03/08 06:33:36;;;;;;;26.13;16.17;;;-0.80;99.90;;;;;;5011343;28;20082;-34
2022/03/08 06:36:03;;;;;;;28.73;16.23;;;-0.80;99.90;;;;;;5011223;28;20046;-34
2022/03/08 06:38:31;;;;;;;30.33;16.13;;;-0.80;99.90;;;;;;5011024;28;20121;-35
2022/03/08 06:40:58;;;;;;;25.15;15.95;;;-0.70;99.90;;;;;;5012533;28;20044;-35
2022/03/08 06:43:24;;;;;;;24.92;15.63;;;-0.70;99.90;;;;;;5011986;28;20089;-35
2022/03/08 06:45:51;;;;;;;30.65;16.55;;;-0.60;99.90;;;;;;5009226;28;20065;-35
2022/03/08 06:48:18;;;;;;;34.05;16.95;;;-0.60;99.90;;;;;;5011880;28;20117;-35
2022/03/08 06:50:44;;;;;;;28.20;15.13;;;-0.60;99.90;;;;;;5021355;28;20128;-35
2022/03/08 06:53:11;;;;;;;26.25;15.30;;;-0.50;99.90;;;;;;5011121;28;20072;-35
2022/03/08 06:55:39;;;;;;;25.83;15.93;;;-0.50;99.90;;;;;;5008726;28;20056;-35
2022/03/08 06:58:06;;;;;;;24.90;15.35;;;-0.40;99.90;;;;;;5010597;28;20056;-34
2022/03/08 07:00:33;;;;;;;23.25;14.65;;;-0.40;99.90;;;;;;5009594;28;21456;-35
2022/03/08 07:02:59;;;;;;;27.02;15.25;;;-0.30;99.90;;;;;;5008378;28;20046;-36
2022/03/08 07:05:26;;;;;;;31.58;15.48;;;-0.30;99.90;;;;;;5009248;28;20381;-35
2022/03/08 07:07:53;;;;;;;26.67;14.55;;;-0.20;99.90;;;;;;4991963;28;20056;-36
2022/03/08 07:10:19;;;;;;;28.25;15.95;;;0.00;99.90;;;;;;5011680;28;20038;-35
2022/03/08 07:12:47;;;;;;;25.52;15.32;;;0.10;99.90;;;;;;5011276;28;20141;-35
2022/03/08 07:15:15;;;;;;;26.65;13.82;;;0.30;99.90;;;;;;5007846;28;20470;-35
2022/03/08 07:17:45;;;;;;;24.98;14.85;;;0.50;99.90;;;;;;5010853;28;20062;-35
2022/03/08 07:20:13;;;;;;;27.65;15.07;;;0.60;99.90;;;;;;5006414;28;20189;-35
2022/03/08 07:22:39;;;;;;;22.88;14.35;;;0.70;99.90;;;;;;5010636;28;20108;-35
2022/03/08 07:25:07;;;;;;;28.60;14.82;;;0.80;99.90;;;;;;5010320;28;20045;-35
2022/03/08 07:27:34;;;;;;;24.25;15.20;;;0.90;99.90;;;;;;5009046;28;20125;-35
2022/03/08 07:30:03;;;;;;;25.42;14.30;;;1.00;99.90;;;;;;5009316;28;20185;-36
2022/03/08 07:32:30;;;;;;;23.08;13.45;;;1.20;99.90;;;;;;5009238;28;20042;-35
2022/03/08 07:34:57;;;;;;;22.02;13.52;;;1.30;99.90;;;;;;5009395;28;20050;-35
2022/03/08 07:37:24;;;;;;;24.95;13.88;;;1.40;99.90;;;;;;5005743;28;20236;-35
2022/03/08 07:39:50;;;;;;;21.73;13.85;;;1.50;99.90;;;;;;5006363;28;20046;-35
2022/03/08 07:42:17;;;;;;;25.60;14.27;;;1.60;99.90;;;;;;5008858;28;20049;-35
2022/03/08 07:44:44;;;;;;;25.15;13.98;;;1.70;99.90;;;;;;5023431;28;20052;-35
2022/03/08 07:47:12;;;;;;;21.63;13.70;;;1.80;99.90;;;;;;5007685;28;20064;-35
2022/03/08 07:49:39;;;;;;;20.67;13.68;;;1.90;99.90;;;;;;5006029;28;20129;-37
2022/03/08 07:52:06;;;;;;;26.52;13.77;;;2.10;99.90;;;;;;5005453;28;20041;-35
2022/03/08 07:54:32;;;;;;;22.48;13.40;;;2.20;99.90;;;;;;5008487;28;20081;-34
2022/03/08 07:56:59;;;;;;;23.23;13.45;;;2.30;99.90;;;;;;5009723;28;20073;-35
2022/03/08 07:59:26;;;;;;;20.35;13.10;;;2.40;99.90;;;;;;5008951;28;20054;-34
2022/03/08 08:01:52;;;;;;;19.02;13.55;;;2.60;99.90;;;;;;5006666;28;20042;-34
2022/03/08 08:04:21;;;;;;;20.00;13.13;;;2.70;99.80;;;;;;5008475;28;20045;-35
2022/03/08 08:06:47;;;;;;;21.73;12.18;;;2.80;99.70;;;;;;5006737;28;20466;-35
2022/03/08 08:09:14;;;;;;;19.27;12.23;;;2.90;99.50;;;;;;5009197;28;20056;-35
2022/03/08 08:11:40;;;;;;;20.88;12.23;;;3.10;99.10;;;;;;5010538;28;20050;-35
2022/03/08 08:14:07;;;;;;;18.42;12.65;;;3.10;98.70;;;;;;5007398;28;21423;-36
2022/03/08 08:16:34;;;;;;;19.25;12.55;;;3.20;98.30;;;;;;5006739;28;20137;-35
2022/03/08 08:19:01;;;;;;;19.45;12.02;;;3.40;98.20;;;;;;5007000;28;20046;-35
2022/03/08 08:21:29;;;;;;;17.90;12.73;;;3.50;97.90;;;;;;5010615;28;20389;-35
2022/03/08 08:23:55;;;;;;;18.17;12.75;;;3.60;97.30;;;;;;5007030;28;20491;-35
2022/03/08 08:26:22;;;;;;;17.85;12.65;;;3.80;97.20;;;;;;5008489;28;20068;-36
2022/03/08 08:28:49;;;;;;;16.73;11.73;;;3.90;96.50;;;;;;5009092;28;20129;-36
2022/03/08 08:31:16;;;;;;;23.80;12.32;;;4.00;95.80;;;;;;5009591;28;20046;-35
2022/03/08 08:33:42;;;;;;;19.05;11.82;;;4.10;95.70;;;;;;5009390;28;20137;-36
2022/03/08 08:36:09;;;;;;;17.95;12.20;;;4.30;95.30;;;;;;5009165;28;20050;-35
2022/03/08 08:38:37;;;;;;;15.48;10.93;;;4.30;95.00;;;;;;5007240;28;20050;-35
2022/03/08 08:41:04;;;;;;;19.77;12.75;;;4.50;94.70;;;;;;5009178;28;20046;-35
2022/03/08 08:43:30;;;;;;;19.05;11.95;;;4.60;94.40;;;;;;5010403;28;20046;-35
2022/03/08 08:45:57;;;;;;;19.23;12.80;;;4.70;93.60;;;;;;5009512;28;20128;-35
2022/03/08 08:48:24;;;;;;;19.20;10.90;;;4.80;93.20;;;;;;5003132;28;20046;-35
2022/03/08 08:50:51;;;;;;;16.63;11.13;;;4.90;92.60;;;;;;5007022;28;20056;-35
2022/03/08 08:53:18;;;;;;;18.52;12.77;;;5.00;92.70;;;;;;5010022;28;20038;-36
2022/03/08 08:55:46;;;;;;;18.58;11.38;;;5.10;92.00;;;;;;5009441;28;20466;-35
2022/03/08 08:58:13;;;;;;;16.27;11.63;;;5.20;91.30;;;;;;5008152;28;20108;-35
2022/03/08 09:00:39;;;;;;;19.05;11.45;;;5.30;91.20;;;;;;5003672;28;20038;-35
2022/03/08 09:03:09;;;;;;;15.82;11.30;;;5.40;91.10;;;;;;5007083;28;20056;-35
2022/03/08 09:05:36;;;;;;;18.55;11.50;;;5.50;90.80;;;;;;5010266;28;20060;-35
2022/03/08 09:08:03;;;;;;;16.85;11.15;;;5.60;90.20;;;;;;5012278;28;20054;-35
2022/03/08 09:10:30;;;;;;;18.02;11.00;;;5.70;89.50;;;;;;5014356;28;20050;-35
2022/03/08 09:12:58;;;;;;;16.52;10.88;;;5.80;88.40;;;;;;5013333;28;20050;-35
2022/03/08 09:15:25;;;;;;;15.77;10.75;;;5.90;88.20;;;;;;5012608;28;20056;-36
2022/03/08 09:17:51;;;;;;;16.38;10.75;;;6.00;88.90;;;;;;5013044;28;20045;-36
2022/03/08 09:20:18;;;;;;;19.55;10.98;;;6.00;86.90;;;;;;5011361;28;20050;-35
2022/03/08 09:22:45;;;;;;;15.57;10.02;;;6.20;86.70;;;;;;5012775;28;20827;-36
2022/03/08 09:25:11;;;;;;;15.65;10.02;;;6.30;86.60;;;;;;5010538;28;20090;-36
2022/03/08 09:27:38;;;;;;;16.45;10.15;;;6.40;84.20;;;;;;5010384;28;20048;-36
2022/03/08 09:30:07;;;;;;;15.38;10.70;;;6.40;83.00;;;;;;5012719;28;20128;-36
2022/03/08 09:32:34;;;;;;;15.07;9.20;;;6.50;82.40;;;;;;5014233;28;20135;-37
2022/03/08 09:35:01;;;;;;;13.38;9.60;;;6.60;81.70;;;;;;5009967;28;20450;-37
2022/03/08 09:37:27;;;;;;;14.48;9.30;;;6.70;80.10;;;;;;5006739;28;20053;-36
2022/03/08 09:39:54;;;;;;;12.77;8.50;;;6.80;80.00;;;;;;5014846;28;20048;-37
2022/03/08 09:42:21;;;;;;;14.70;8.10;;;7.00;79.00;;;;;;5011940;28;20474;-36
2022/03/08 09:44:48;;;;;;;13.20;9.35;;;7.10;77.10;;;;;;5013434;28;20034;-35
2022/03/08 09:47:16;;;;;;;14.48;8.55;;;7.20;76.60;;;;;;5011182;28;20061;-37
2022/03/08 09:49:43;;;;;;;11.77;8.48;;;7.30;74.40;;;;;;5010890;28;20045;-36
2022/03/08 09:52:10;;;;;;;13.70;8.55;;;7.30;73.80;;;;;;5012700;28;20054;-37
2022/03/08 09:54:36;;;;;;;10.50;7.38;;;7.40;73.40;;;;;;5011411;28;20681;-36
2022/03/08 09:57:08;;;;;;;12.82;7.45;;;7.50;72.20;;;;;;5009820;28;20044;-36
2022/03/08 09:59:35;;;;;;;12.50;8.23;;;7.60;70.30;;;;;;5013277;28;20042;-37
2022/03/08 10:02:02;;;;;;;12.23;6.85;;;7.60;71.50;;;;;;5012456;28;20052;-36
2022/03/08 10:04:30;;;;;;;13.55;8.30;;;7.70;69.60;;;;;;5011444;28;20048;-36
2022/03/08 10:06:57;;;;;;;11.90;7.95;;;7.70;68.90;;;;;;5011357;28;20048;-36
2022/03/08 10:09:24;;;;;;;10.50;8.30;;;7.80;69.80;;;;;;5011399;28;20054;-37
2022/03/08 10:11:51;;;;;;;12.82;7.93;;;7.90;69.90;;;;;;5012670;28;20710;-36
2022/03/08 10:14:29;;;;;;;11.70;8.45;;;8.00;68.60;;;;;;5009471;28;20064;-36
2022/03/08 10:16:56;;;;;;;12.07;8.35;;;8.00;66.40;;;;;;5010875;28;20042;-37
2022/03/08 10:19:22;;;;;;;14.65;8.30;;;8.10;68.50;;;;;;5010954;28;20060;-37
2022/03/08 10:21:54;;;;;;;15.73;8.13;;;8.20;67.80;;;;;;5028160;28;20060;-37
2022/03/08 10:24:22;;;;;;;11.07;7.78;;;8.30;66.40;;;;;;5005331;28;20061;-37
2022/03/08 10:26:50;;;;;;;11.88;7.88;;;8.40;66.50;;;;;;5011452;28;20129;-39
2022/03/08 10:29:24;;;;;;;12.43;8.40;;;8.40;66.00;;;;;;5003870;28;20049;-37
2022/03/08 10:31:51;;;;;;;11.23;7.75;;;8.50;64.80;;;;;;5013439;28;20152;-37
2022/03/08 10:34:23;;;;;;;12.20;8.68;;;8.50;64.70;;;;;;5009572;28;20466;-37
2022/03/08 10:37:06;;;;;;;;;;;8.60;65.30;;;;;;4999276;28;20050;-38
2022/03/08 10:39:33;;;;;;;15.27;7.97;;;8.70;62.00;;;;;;4995789;28;20252;-37
2022/03/08 10:42:00;;;;;;;10.75;7.82;;;8.70;65.70;;;;;;5004528;28;20486;-37
2022/03/08 10:44:35;;;;;;;10.98;7.50;;;8.90;64.80;;;;;;5013003;28;20327;-38
2022/03/08 10:47:03;;;;;;;10.88;8.30;;;9.00;63.30;;;;;;5008053;28;20046;-36
2022/03/08 10:49:29;;;;;;;12.73;7.90;;;9.10;63.80;;;;;;5001125;28;20505;-36
2022/03/08 10:52:00;;;;;;;11.40;7.50;;;9.20;64.00;;;;;;5011603;28;20041;-37
2022/03/08 10:54:29;;;;;;;11.63;6.80;;;9.30;62.20;;;;;;5010603;28;20052;-35
2022/03/08 10:56:56;;;;;;;8.90;6.43;;;9.30;60.70;;;;;;5011381;28;20049;-35
2022/03/08 10:59:26;;;;;;;8.45;6.07;;;9.40;60.10;;;;;;5010017;28;20103;-37
2022/03/08 11:01:52;;;;;;;9.60;6.60;;;9.30;59.50;;;;;;5011434;28;20136;-36
2022/03/08 11:04:20;;;;;;;12.98;6.55;;;9.30;58.60;;;;;;5010922;28;20041;-36
2022/03/08 11:06:50;;;;;;;10.18;7.22;;;9.30;57.90;;;;;;5011971;28;20056;-36
2022/03/08 11:09:17;;;;;;;8.85;6.65;;;9.30;58.80;;;;;;5003294;28;20053;-35
2022/03/08 11:11:45;;;;;;;10.23;6.50;;;9.40;57.90;;;;;;5012572;28;20058;-36
2022/03/08 11:14:12;;;;;;;9.85;6.40;;;9.50;57.90;;;;;;5004733;28;20057;-36
2022/03/08 11:16:39;;;;;;;7.82;5.80;;;9.60;58.30;;;;;;5010495;28;20376;-36
2022/03/08 11:19:05;;;;;;;9.75;6.57;;;9.80;58.00;;;;;;5011245;28;20073;-36
2022/03/08 11:21:33;;;;;;;8.77;6.28;;;9.90;57.50;;;;;;5008482;28;20049;-36
2022/03/08 11:24:00;;;;;;;9.02;5.88;;;10.00;57.90;;;;;;5009382;28;20084;-36
2022/03/08 11:26:26;;;;;;;10.30;5.90;;;10.10;56.70;;;;;;5010851;28;20038;-36
2022/03/08 11:28:54;;;;;;;10.68;5.70;;;10.10;56.20;;;;;;5005507;28;20052;-36
2022/03/08 11:31:24;;;;;;;9.85;5.85;;;10.10;55.60;;;;;;5009051;28;20054;-37
2022/03/08 11:33:58;;;;;;;8.88;5.47;;;10.10;55.90;;;;;;5010488;28;20049;-37
2022/03/08 11:36:27;;;;;;;8.68;5.47;;;10.10;54.90;;;;;;5011228;28;20052;-35
2022/03/08 11:39:20;;;;;;;6.75;4.97;;;10.20;55.40;;;;;;5009816;28;20133;-36
2022/03/08 11:41:48;;;;;;;8.52;6.22;;;10.10;53.30;;;;;;4998265;28;20058;-37
2022/03/08 11:44:26;;;;;;;8.65;5.38;;;10.10;55.20;;;;;;5027230;28;20140;-36
2022/03/08 11:47:00;;;;;;;8.95;5.32;;;10.30;55.00;;;;;;5011448;28;20120;-36
2022/03/08 11:49:41;;;;;;;10.00;5.53;;;10.40;53.40;;;;;;5011544;28;20342;-36
2022/03/08 11:52:16;;;;;;;;;;;10.40;53.90;;;;;;5009945;28;20038;-37
2022/03/08 11:54:43;;;;;;;8.88;5.40;;;10.50;52.30;;;;;;5009194;28;19940;-37
2022/03/08 11:57:09;;;;;;;6.18;4.15;;;10.60;55.50;;;;;;5008096;28;20151;-36
2022/03/08 11:59:37;;;;;;;7.13;4.88;;;10.70;55.00;;;;;;4997865;28;20053;-36
2022/03/08 12:02:04;;;;;;;5.80;4.57;;;10.70;54.00;;;;;;5009374;28;20133;-36
2022/03/08 12:04:44;;;;;;;5.53;4.25;;;10.70;53.90;;;;;;5008846;28;20049;-36
2022/03/08 12:07:24;;;;;;;5.13;3.97;;;10.80;53.70;;;;;;5026573;28;20053;-37
2022/03/08 12:10:11;;;;;;;8.95;4.32;;;10.80;53.30;;;;;;5007910;28;20125;-36
2022/03/08 12:12:42;;;;;;;5.50;3.70;;;10.90;52.70;;;;;;5010981;28;20480;-36
2022/03/08 12:15:10;;;;;;;6.13;3.92;;;10.90;51.70;;;;;;5000878;28;20486;-37
2022/03/08 12:17:37;;;;;;;6.40;4.30;;;11.00;52.20;;;;;;5012393;28;20375;-36
2022/03/08 12:20:05;;;;;;;5.60;4.10;;;11.00;51.90;;;;;;5012337;28;20052;-36
2022/03/08 12:22:34;;;;;;;5.38;4.13;;;11.10;52.60;;;;;;4995023;28;20049;-37
2022/03/08 12:25:01;;;;;;;5.43;3.92;;;11.20;50.90;;;;;;5011855;28;20125;-36
2022/03/08 12:27:48;;;;;;;5.53;4.43;;;11.20;51.50;;;;;;5011883;28;20088;-36
2022/03/08 12:30:16;;;;;;;6.93;4.50;;;11.30;48.60;;;;;;5011937;28;20037;-36
2022/03/08 12:32:43;;;;;;;7.35;4.28;;;11.30;51.20;;;;;;5011729;28;20079;-37
2022/03/08 12:35:20;;;;;;;7.70;4.82;;;11.30;51.40;;;;;;5012174;28;20056;-37
2022/03/08 12:37:49;;;;;;;9.60;4.22;;;11.50;52.20;;;;;;5010904;28;20052;-36
2022/03/08 12:40:23;;;;;;;8.80;4.25;;;11.60;51.50;;;;;;5002907;28;20046;-37